Algowood — VCTD — position and weather

sailwx.info

Track history (hours):
 
Tides and Currents Weather Stations Pressure Air Temp Water Temp Dewpoint Dewpoint Depression Visibility Wind Speed Wind Dir Waves Ship Positions

Algowood

Last reported at 2016-Dec-28 15:27 UTC. Time now 2017-Feb-20 01:37 UTC.
Position N 43°11' W 079°12'.
Warning: this ship's position is 53 days out of date.

Length 223 m; draft 5.5 m.

Type: Cargo ship. MMSI: 316001802.

Date/timePositionNaut miles runAvg speedWind from/ knotsBaromVisibWave heightAir tempDewpointWater temp
2016-Dec-28 15:27N 43°11' W 079°12'1 0.5
2016-Dec-28 14:30N 43°12' W 079°12'1 1.5
2016-Dec-28 13:33N 43°13' W 079°13'249 6.5
2016-Dec-26 23:06N 45°14' W 074°09'4 0.5
2016-Dec-26 15:31N 45°13' W 074°04'6 6.2
2016-Dec-26 14:33N 45°17' W 073°57'2 2.1
2016-Dec-26 13:33N 45°19' W 073°55'1 0.8
2016-Dec-26 12:33N 45°19' W 073°55'7 7.4
2016-Dec-26 11:33N 45°24' W 073°47'7 6.8
2016-Dec-26 10:33N 45°24' W 073°37'3 2.7
2016-Dec-26 09:32N 45°24' W 073°33'1 0.6
2016-Dec-26 08:32N 45°24' W 073°34'1 1.2
2016-Dec-26 07:33N 45°24' W 073°36'0 0.0
2016-Dec-26 06:33N 45°24' W 073°36'0 0.0
2016-Dec-26 05:33N 45°24' W 073°36'0 0.0
2016-Dec-26 04:33N 45°24' W 073°36'0 0.0
2016-Dec-26 03:33N 45°24' W 073°36'0 0.0
2016-Dec-26 02:33N 45°24' W 073°36'0 0.0
2016-Dec-26 01:33N 45°24' W 073°36'0 0.0
2016-Dec-26 00:33N 45°24' W 073°36'0 0.0
2016-Dec-25 23:33N 45°24' W 073°36'2 1.5
2016-Dec-25 22:33N 45°24' W 073°38'6 6.1
2016-Dec-25 21:33N 45°24' W 073°47'8 7.9
2016-Dec-25 20:33N 45°19' W 073°55'1 0.8
2016-Dec-25 19:33N 45°18' W 073°56'3 3.1
2016-Dec-25 18:33N 45°15' W 073°58'255 7.4
2016-Dec-24 08:03N 43°16' W 079°12'3 5.4
2016-Dec-24 07:34N 43°13' W 079°13'1 0.7
2016-Dec-24 06:34N 43°13' W 079°13'1 1.2
2016-Dec-24 05:34N 43°12' W 079°12'  
2016-Dec-18 15:33N 43°13' W 079°13'  
Track history (hours):
 
Tides and Currents Weather Stations Pressure Air Temp Water Temp Dewpoint Dewpoint Depression Visibility Wind Speed Wind Dir Waves Ship Positions

Algowood

Last reported at 2016-Dec-28 15:27 UTC. Time now 2017-Feb-20 01:37 UTC.
Position N 43°11' W 079°12'.
Warning: this ship's position is 53 days out of date.

Length 223 m; draft 5.5 m.

Type: Cargo ship. MMSI: 316001802.

Date/timePositionNaut miles runAvg speedWind from/ knotsBaromVisibWave heightAir tempDewpointWater temp
2016-Dec-28 15:27N 43°11' W 079°12'1 0.5
2016-Dec-28 14:30N 43°12' W 079°12'1 1.5
2016-Dec-28 13:33N 43°13' W 079°13'249 6.5
2016-Dec-26 23:06N 45°14' W 074°09'4 0.5
2016-Dec-26 15:31N 45°13' W 074°04'6 6.2
2016-Dec-26 14:33N 45°17' W 073°57'2 2.1
2016-Dec-26 13:33N 45°19' W 073°55'1 0.8
2016-Dec-26 12:33N 45°19' W 073°55'7 7.4
2016-Dec-26 11:33N 45°24' W 073°47'7 6.8
2016-Dec-26 10:33N 45°24' W 073°37'3 2.7
2016-Dec-26 09:32N 45°24' W 073°33'1 0.6
2016-Dec-26 08:32N 45°24' W 073°34'1 1.2
2016-Dec-26 07:33N 45°24' W 073°36'0 0.0
2016-Dec-26 06:33N 45°24' W 073°36'0 0.0
2016-Dec-26 05:33N 45°24' W 073°36'0 0.0
2016-Dec-26 04:33N 45°24' W 073°36'0 0.0
2016-Dec-26 03:33N 45°24' W 073°36'0 0.0
2016-Dec-26 02:33N 45°24' W 073°36'0 0.0
2016-Dec-26 01:33N 45°24' W 073°36'0 0.0
2016-Dec-26 00:33N 45°24' W 073°36'0 0.0
2016-Dec-25 23:33N 45°24' W 073°36'2 1.5
2016-Dec-25 22:33N 45°24' W 073°38'6 6.1
2016-Dec-25 21:33N 45°24' W 073°47'8 7.9
2016-Dec-25 20:33N 45°19' W 073°55'1 0.8
2016-Dec-25 19:33N 45°18' W 073°56'3 3.1
2016-Dec-25 18:33N 45°15' W 073°58'255 7.4
2016-Dec-24 08:03N 43°16' W 079°12'3 5.4
2016-Dec-24 07:34N 43°13' W 079°13'1 0.7
2016-Dec-24 06:34N 43°13' W 079°13'1 1.2
2016-Dec-24 05:34N 43°12' W 079°12'  
2016-Dec-18 15:33N 43°13' W 079°13'  

Dump ship's entire track history